createdAt,value
2022-08-05T00:01:01.036Z,15.46
2022-08-05T00:03:46.547Z,15.48
2022-08-05T00:06:35.993Z,15.50
2022-08-05T00:09:23.178Z,15.49
2022-08-05T00:12:13.055Z,15.45
2022-08-05T00:14:59.258Z,15.43
2022-08-05T00:17:48.410Z,15.40
2022-08-05T00:20:36.393Z,15.34
2022-08-05T00:23:44.557Z,15.32
2022-08-05T00:26:14.506Z,15.27
2022-08-05T00:29:03.763Z,15.24
2022-08-05T00:32:10.957Z,15.12
2022-08-05T00:34:56.351Z,15.04
2022-08-05T00:37:35.864Z,15.02
2022-08-05T00:40:26.875Z,15.00
2022-08-05T00:43:09.125Z,15.03
2022-08-05T00:45:58.195Z,15.06
2022-08-05T00:48:51.217Z,15.08
2022-08-05T00:51:50.935Z,15.08
2022-08-05T00:54:28.185Z,15.11
2022-08-05T00:57:15.726Z,15.13
2022-08-05T01:00:07.227Z,15.13
2022-08-05T01:02:56.949Z,15.06
2022-08-05T01:05:44.545Z,14.98
2022-08-05T01:08:43.195Z,14.89
2022-08-05T01:11:33.713Z,14.80
2022-08-05T01:14:28.395Z,14.68
2022-08-05T01:17:27.648Z,14.64
2022-08-05T01:20:34.660Z,14.65
2022-08-05T01:23:53.209Z,14.62
2022-08-05T01:27:17.666Z,14.66
2022-08-05T01:30:02.706Z,14.70
2022-08-05T01:32:53.161Z,14.70
2022-08-05T01:35:51.757Z,14.72
2022-08-05T01:38:30.340Z,14.69
2022-08-05T01:41:20.975Z,14.68
2022-08-05T01:44:09.853Z,14.66
2022-08-05T01:46:57.897Z,14.63
2022-08-05T01:50:02.007Z,14.64
2022-08-05T01:52:38.083Z,14.65
2022-08-05T01:55:26.473Z,14.67
2022-08-05T01:58:15.897Z,14.69
2022-08-05T02:01:04.458Z,14.70
2022-08-05T02:03:53.326Z,14.67
2022-08-05T02:06:41.017Z,14.63
2022-08-05T02:09:30.520Z,14.56
2022-08-05T02:12:25.536Z,14.46
2022-08-05T02:15:24.140Z,14.39
2022-08-05T02:18:30.758Z,14.34
2022-08-05T02:21:15.022Z,14.37
2022-08-05T02:23:57.937Z,14.37
2022-08-05T02:26:55.882Z,14.34
2022-08-05T02:29:58.554Z,14.33
2022-08-05T02:32:34.739Z,14.29
2022-08-05T02:35:28.079Z,14.23
2022-08-05T02:38:19.176Z,14.20
2022-08-05T02:41:06.379Z,14.13
2022-08-05T02:44:02.307Z,14.11
2022-08-05T02:46:58.331Z,14.10
2022-08-05T02:49:40.608Z,14.06
2022-08-05T02:52:30.623Z,14.03
2022-08-05T02:55:17.564Z,13.99
2022-08-05T02:58:10.567Z,13.97
2022-08-05T03:00:57.130Z,13.97
2022-08-05T03:04:03.061Z,14.03
2022-08-05T03:06:55.813Z,14.09
2022-08-05T03:09:36.415Z,14.17
2022-08-05T03:12:31.144Z,14.19
2022-08-05T03:15:18.610Z,14.21
2022-08-05T03:18:06.295Z,14.19
2022-08-05T03:20:55.363Z,14.15
2022-08-05T03:23:44.116Z,14.12
2022-08-05T03:26:33.944Z,14.14
2022-08-05T03:29:21.424Z,14.10
2022-08-05T03:32:10.160Z,14.07
2022-08-05T03:34:58.512Z,14.09
2022-08-05T03:37:46.945Z,14.18
2022-08-05T03:40:35.742Z,14.27
2022-08-05T03:44:10.016Z,14.34
2022-08-05T03:46:15.640Z,14.40
2022-08-05T03:49:04.551Z,14.43
2022-08-05T03:52:50.388Z,14.58
2022-08-05T03:54:56.728Z,14.72
2022-08-05T03:57:43.057Z,14.88
2022-08-05T04:00:32.482Z,15.03
2022-08-05T04:03:28.280Z,15.16
2022-08-05T04:06:10.200Z,15.34
2022-08-05T04:08:58.137Z,15.52
2022-08-05T04:11:50.826Z,15.70
2022-08-05T04:14:35.811Z,15.87
2022-08-05T04:17:23.795Z,16.04
2022-08-05T04:20:20.922Z,16.19
2022-08-05T04:23:12.224Z,16.32
2022-08-05T04:26:00.456Z,16.46
2022-08-05T04:28:51.263Z,16.61
2022-08-05T04:31:38.767Z,16.74
2022-08-05T04:34:33.886Z,16.91
2022-08-05T04:37:15.952Z,17.08
2022-08-05T04:40:04.167Z,17.21
2022-08-05T04:42:52.457Z,17.38
2022-08-05T04:45:48.073Z,17.53
2022-08-05T04:48:29.240Z,17.70
2022-08-05T04:51:17.730Z,17.89
2022-08-05T04:54:05.600Z,18.09
2022-08-05T04:56:57.434Z,18.34
2022-08-05T04:59:42.177Z,18.59
2022-08-05T05:02:41.429Z,18.83
2022-08-05T05:05:28.236Z,19.02
2022-08-05T05:08:14.182Z,19.20
2022-08-05T05:10:59.768Z,19.38
2022-08-05T05:13:47.537Z,19.57
2022-08-05T05:16:36.192Z,19.77
2022-08-05T05:19:27.339Z,19.97
2022-08-05T05:22:23.382Z,20.17
2022-08-05T05:25:17.074Z,20.36
2022-08-05T05:27:53.876Z,20.55
2022-08-05T05:30:42.401Z,20.76
2022-08-05T05:33:29.831Z,20.93
2022-08-05T05:36:18.905Z,21.15
2022-08-05T05:39:09.390Z,21.38
2022-08-05T05:41:56.417Z,21.59
2022-08-05T05:44:45.888Z,21.81
2022-08-05T05:48:07.167Z,22.00
2022-08-05T05:50:22.368Z,22.21
2022-08-05T05:53:21.937Z,22.44
2022-08-05T05:56:03.242Z,22.62
2022-08-05T05:58:50.761Z,22.77
2022-08-05T06:01:41.423Z,22.90
2022-08-05T06:04:29.641Z,23.06
2022-08-05T06:07:17.184Z,23.19
2022-08-05T06:10:10.205Z,23.33
2022-08-05T06:12:56.193Z,23.39
2022-08-05T06:16:29.864Z,23.51
2022-08-05T06:18:36.476Z,23.59
2022-08-05T06:21:23.056Z,23.66
2022-08-05T06:24:12.775Z,23.65
2022-08-05T06:27:01.362Z,23.66
2022-08-05T06:30:04.406Z,23.69
2022-08-05T06:32:38.234Z,23.75
2022-08-05T06:36:07.184Z,23.81
2022-08-05T06:38:16.384Z,23.93
2022-08-05T06:41:03.840Z,24.02
2022-08-05T06:44:00.290Z,24.07
2022-08-05T06:46:40.680Z,24.13
2022-08-05T06:50:01.402Z,24.24
2022-08-05T06:52:36.681Z,24.31
2022-08-05T06:55:08.712Z,24.46
2022-08-05T06:57:58.119Z,24.59
2022-08-05T07:00:45.192Z,24.62
2022-08-05T07:03:34.639Z,24.72
2022-08-05T07:06:23.480Z,24.90
2022-08-05T07:09:11.076Z,24.99
2022-08-05T07:12:00.436Z,25.05
2022-08-05T07:15:05.072Z,25.18
2022-08-05T07:18:02.207Z,25.30
2022-08-05T07:20:44.264Z,25.45
2022-08-05T07:23:32.368Z,25.56
2022-08-05T07:26:22.881Z,25.60
2022-08-05T07:29:09.552Z,25.69
2022-08-05T07:31:57.488Z,25.80
2022-08-05T07:34:45.280Z,25.92
2022-08-05T07:37:37.525Z,26.01
2022-08-05T07:40:32.544Z,26.20
2022-08-05T07:43:20.528Z,26.34
2022-08-05T07:46:03.648Z,26.29
2022-08-05T07:49:03.506Z,26.36
2022-08-05T07:51:53.120Z,26.31
2022-08-05T07:54:30.943Z,26.34
2022-08-05T07:57:42.056Z,26.38
2022-08-05T08:00:11.424Z,26.49
2022-08-05T08:03:15.167Z,26.59
2022-08-05T08:05:49.667Z,26.67
2022-08-05T08:08:36.547Z,26.68
2022-08-05T08:11:27.654Z,26.85
2022-08-05T08:14:19.023Z,26.96
2022-08-05T08:17:03.652Z,27.08
2022-08-05T08:20:22.360Z,27.22
2022-08-05T08:22:40.363Z,27.23
2022-08-05T08:25:59.244Z,27.17
2022-08-05T08:28:36.673Z,27.18
2022-08-05T08:31:08.650Z,27.33
2022-08-05T08:33:56.364Z,27.45
2022-08-05T08:36:52.419Z,27.54
2022-08-05T08:39:37.413Z,27.62
2022-08-05T08:42:34.608Z,27.72
2022-08-05T08:45:18.096Z,27.78
2022-08-05T08:48:07.458Z,27.76
2022-08-05T08:51:23.189Z,27.88
2022-08-05T08:53:45.049Z,27.86
2022-08-05T08:56:34.060Z,27.91
2022-08-05T08:59:21.785Z,27.97
2022-08-05T09:02:10.961Z,27.99
2022-08-05T09:05:16.899Z,28.06
2022-08-05T09:07:57.312Z,28.05
2022-08-05T09:10:37.819Z,28.17
2022-08-05T09:13:31.814Z,28.20
2022-08-05T09:16:16.830Z,28.17
2022-08-05T09:19:06.921Z,28.23
2022-08-05T09:22:23.235Z,28.38
2022-08-05T09:24:45.121Z,28.41
2022-08-05T09:28:03.961Z,28.64
2022-08-05T09:30:27.208Z,28.85
2022-08-05T09:33:15.324Z,29.01
2022-08-05T09:36:11.807Z,28.95
2022-08-05T09:38:59.856Z,28.96
2022-08-05T09:42:03.928Z,29.06
2022-08-05T09:44:56.219Z,29.29
2022-08-05T09:47:56.295Z,29.57
2022-08-05T09:50:44.486Z,29.68
2022-08-05T09:53:53.561Z,29.85
2022-08-05T09:56:33.615Z,29.87
2022-08-05T09:59:24.003Z,29.90
2022-08-05T10:02:12.914Z,29.93
2022-08-05T10:05:07.959Z,30.00
2022-08-05T10:08:35.172Z,30.10
2022-08-05T10:10:54.084Z,30.32
2022-08-05T10:13:47.457Z,30.47
2022-08-05T10:16:34.081Z,30.41
2022-08-05T10:19:23.462Z,30.40
2022-08-05T10:22:15.613Z,30.32
2022-08-05T10:25:02.040Z,30.24
2022-08-05T10:28:13.128Z,30.17
2022-08-05T10:31:20.783Z,30.28
2022-08-05T10:33:35.198Z,30.47
2022-08-05T10:36:23.424Z,30.64
2022-08-05T10:39:25.176Z,30.84
2022-08-05T10:42:13.590Z,31.04
2022-08-05T10:45:01.185Z,31.07
2022-08-05T10:48:29.174Z,30.98
2022-08-05T10:53:58.211Z,31.25
2022-08-05T10:56:52.733Z,31.47
2022-08-05T11:00:02.606Z,31.68
2022-08-05T11:02:38.021Z,31.68
2022-08-05T11:05:18.712Z,31.64
2022-08-05T11:08:36.658Z,31.70
2022-08-05T11:11:18.689Z,31.75
2022-08-05T11:14:06.276Z,31.73
2022-08-05T11:17:58.705Z,31.65
2022-08-05T11:20:44.590Z,31.62
2022-08-05T11:24:03.913Z,31.67
2022-08-05T11:26:49.576Z,31.72
2022-08-05T11:29:42.993Z,31.72
2022-08-05T11:32:31.491Z,31.57
2022-08-05T11:36:08.384Z,31.63
2022-08-05T11:38:51.895Z,31.86
2022-08-05T11:42:01.284Z,32.25
2022-08-05T11:44:53.328Z,32.40
2022-08-05T11:47:49.060Z,32.40
2022-08-05T11:50:14.630Z,32.47
2022-08-05T11:53:06.362Z,32.44
2022-08-05T11:55:59.270Z,32.35
2022-08-05T11:58:52.871Z,32.36
2022-08-05T12:01:36.653Z,32.39
2022-08-05T12:04:27.585Z,32.63
2022-08-05T12:07:18.394Z,32.74
2022-08-05T12:10:11.574Z,32.66
2022-08-05T12:13:01.075Z,32.74
2022-08-05T12:15:50.466Z,32.80
2022-08-05T12:18:39.980Z,32.93
2022-08-05T12:21:33.834Z,32.85
2022-08-05T12:24:24.647Z,32.79
2022-08-05T12:27:21.643Z,32.91
2022-08-05T12:30:05.193Z,33.02
2022-08-05T12:32:54.113Z,33.29
2022-08-05T12:35:43.537Z,33.41
2022-08-05T12:38:32.665Z,33.53
2022-08-05T12:41:21.536Z,33.51
2022-08-05T12:44:14.419Z,33.46
2022-08-05T12:47:01.806Z,33.55
2022-08-05T12:50:03.283Z,33.75
2022-08-05T12:52:42.271Z,34.06
2022-08-05T12:55:32.807Z,34.06
2022-08-05T12:58:50.870Z,34.09
2022-08-05T13:02:03.285Z,34.33
2022-08-05T13:04:07.430Z,34.36
2022-08-05T13:06:57.664Z,34.26
2022-08-05T13:09:56.719Z,34.44
2022-08-05T13:12:57.291Z,34.52
2022-08-05T13:15:41.922Z,34.79
2022-08-05T13:18:23.989Z,35.30
2022-08-05T13:21:11.152Z,35.92
2022-08-05T13:23:59.697Z,36.41
2022-08-05T13:26:50.776Z,37.17
2022-08-05T13:29:38.147Z,37.82
2022-08-05T13:32:33.060Z,38.54
2022-08-05T13:35:22.215Z,39.07
2022-08-05T13:38:06.059Z,39.49
2022-08-05T13:40:54.050Z,39.95
2022-08-05T13:43:45.063Z,40.49
2022-08-05T13:46:50.781Z,41.05
2022-08-05T13:49:20.441Z,41.11
2022-08-05T13:52:20.120Z,41.35
2022-08-05T13:55:09.743Z,41.90
2022-08-05T13:57:57.224Z,42.32
2022-08-05T14:00:44.304Z,42.58
2022-08-05T14:03:33.546Z,43.00
2022-08-05T14:06:26.421Z,43.44
2022-08-05T14:09:09.936Z,43.84
2022-08-05T14:12:04.114Z,44.23
2022-08-05T14:14:48.241Z,44.29
2022-08-05T14:17:37.547Z,44.22
2022-08-05T14:20:27.316Z,44.34
2022-08-05T14:23:18.957Z,44.24
2022-08-05T14:26:04.858Z,44.54
2022-08-05T14:28:52.738Z,44.80
2022-08-05T14:32:02.275Z,44.83
2022-08-05T14:34:29.106Z,44.93
2022-08-05T14:37:18.384Z,44.70
2022-08-05T14:40:06.961Z,44.76
2022-08-05T14:42:54.433Z,44.38
2022-08-05T14:45:43.580Z,44.23
2022-08-05T14:48:33.317Z,43.97
2022-08-05T14:51:19.513Z,44.03
2022-08-05T14:54:27.724Z,44.34
2022-08-05T14:56:58.652Z,44.75
2022-08-05T14:59:46.321Z,44.66
2022-08-05T15:02:35.077Z,44.34
2022-08-05T15:05:29.884Z,44.39
2022-08-05T15:08:17.834Z,44.55
2022-08-05T15:11:01.216Z,44.74
2022-08-05T15:13:50.384Z,44.63
2022-08-05T15:16:38.210Z,44.81
2022-08-05T15:19:27.096Z,44.98
2022-08-05T15:22:16.205Z,45.14
2022-08-05T15:25:13.727Z,44.94
2022-08-05T15:27:54.820Z,44.93
2022-08-05T15:30:41.744Z,44.88
2022-08-05T15:34:04.545Z,44.87
2022-08-05T15:36:24.204Z,44.95
2022-08-05T15:41:02.713Z,44.26
2022-08-05T15:41:59.459Z,44.07
2022-08-05T15:44:46.423Z,44.15
2022-08-05T15:47:35.948Z,44.08
2022-08-05T15:50:25.189Z,44.25
2022-08-05T15:53:12.677Z,44.28
2022-08-05T15:56:02.796Z,44.05
2022-08-05T15:58:50.585Z,43.96
2022-08-05T16:01:39.865Z,43.90
2022-08-05T16:04:27.113Z,43.76
2022-08-05T16:07:15.208Z,43.91
2022-08-05T16:10:02.724Z,43.57
2022-08-05T16:12:50.758Z,43.33
2022-08-05T16:15:40.107Z,43.18
2022-08-05T16:18:29.598Z,42.81
2022-08-05T16:21:16.936Z,42.74
2022-08-05T16:24:04.374Z,42.66
2022-08-05T16:26:58.905Z,42.47
2022-08-05T16:29:50.883Z,41.61
2022-08-05T16:32:35.536Z,39.54
2022-08-05T16:35:28.416Z,37.74
2022-08-05T16:38:23.731Z,36.27
2022-08-05T16:44:54.276Z,34.09
2022-08-05T16:47:48.310Z,33.17
2022-08-05T16:50:29.745Z,32.63
2022-08-05T16:53:22.662Z,32.23
2022-08-05T16:56:08.185Z,31.91
2022-08-05T16:58:57.637Z,31.66
2022-08-05T17:01:53.708Z,31.48
2022-08-05T17:04:34.014Z,31.25
2022-08-05T17:07:38.881Z,31.03
2022-08-05T17:10:11.025Z,30.86
2022-08-05T17:12:58.364Z,30.68
2022-08-05T17:15:48.524Z,30.49
2022-08-05T17:18:35.609Z,30.31
2022-08-05T17:21:24.721Z,30.15
2022-08-05T17:24:28.461Z,30.10
2022-08-05T17:27:01.455Z,30.06
2022-08-05T17:29:59.643Z,29.87
2022-08-05T17:32:38.321Z,29.66
2022-08-05T17:35:32.653Z,29.46
2022-08-05T17:38:17.873Z,29.27
2022-08-05T17:41:05.583Z,29.10
2022-08-05T17:43:54.993Z,28.85
2022-08-05T17:46:42.787Z,28.65
2022-08-05T17:49:59.714Z,28.46
2022-08-05T17:52:19.946Z,28.24
2022-08-05T17:55:11.148Z,28.03
2022-08-05T17:58:00.258Z,27.79
2022-08-05T18:00:50.658Z,27.59
2022-08-05T18:03:56.033Z,27.42
2022-08-05T18:06:29.223Z,27.21
2022-08-05T18:09:16.304Z,26.91
2022-08-05T18:12:03.873Z,26.63
2022-08-05T18:14:51.769Z,26.40
2022-08-05T18:18:00.795Z,26.17
2022-08-05T18:20:29.520Z,25.94
2022-08-05T18:23:17.561Z,25.72
2022-08-05T18:26:05.601Z,25.56
2022-08-05T18:28:53.691Z,25.45
2022-08-05T18:31:43.114Z,25.36
2022-08-05T18:34:40.661Z,25.28
2022-08-05T18:37:34.229Z,25.19
2022-08-05T18:40:34.315Z,25.00
2022-08-05T18:42:59.066Z,24.84
2022-08-05T18:45:47.617Z,24.69
2022-08-05T18:48:41.623Z,24.55
2022-08-05T18:52:06.303Z,24.42
2022-08-05T18:54:32.816Z,24.29
2022-08-05T18:57:25.562Z,24.17
2022-08-05T19:00:19.940Z,24.06
2022-08-05T19:03:03.372Z,23.93
2022-08-05T19:06:13.217Z,23.83
2022-08-05T19:08:39.697Z,23.76
2022-08-05T19:11:37.134Z,23.65
2022-08-05T19:14:53.551Z,23.51
2022-08-05T19:17:07.788Z,23.33
2022-08-05T19:19:56.216Z,23.15
2022-08-05T19:22:46.011Z,23.03
2022-08-05T19:25:43.409Z,22.94
2022-08-05T19:28:24.551Z,22.88
2022-08-05T19:31:18.024Z,22.81
2022-08-05T19:34:07.666Z,22.74
2022-08-05T19:36:57.444Z,22.68
2022-08-05T19:39:51.014Z,22.61
2022-08-05T19:42:36.501Z,22.47
2022-08-05T19:45:25.598Z,22.32
2022-08-05T19:48:14.613Z,22.15
2022-08-05T19:51:05.097Z,21.98
2022-08-05T19:54:03.743Z,21.81
2022-08-05T19:56:44.272Z,21.71
2022-08-05T19:59:54.966Z,21.66
2022-08-05T20:02:26.353Z,21.64
2022-08-05T20:05:16.686Z,21.65
2022-08-05T20:08:04.234Z,21.66
2022-08-05T20:10:53.932Z,21.58
2022-08-05T20:13:58.525Z,21.52
2022-08-05T20:16:31.329Z,21.43
2022-08-05T20:19:21.298Z,21.33
2022-08-05T20:22:13.280Z,21.20
2022-08-05T20:25:00.536Z,21.09
2022-08-05T20:27:48.291Z,21.07
2022-08-05T20:30:37.946Z,21.09
2022-08-05T20:33:25.050Z,21.09
2022-08-05T20:36:14.369Z,21.00
2022-08-05T20:39:03.425Z,20.88
2022-08-05T20:41:51.084Z,20.69
2022-08-05T20:44:39.025Z,20.60
2022-08-05T20:47:32.347Z,20.59
2022-08-05T20:50:17.410Z,20.54
2022-08-05T20:53:05.937Z,20.54
2022-08-05T20:56:08.350Z,20.54
2022-08-05T20:58:44.442Z,20.53
2022-08-05T21:01:38.557Z,20.53
2022-08-05T21:04:21.755Z,20.50
2022-08-05T21:07:11.060Z,20.43
2022-08-05T21:10:01.019Z,20.43
2022-08-05T21:12:57.673Z,20.34
2022-08-05T21:15:38.801Z,20.21
2022-08-05T21:18:26.584Z,20.04
2022-08-05T21:21:14.097Z,19.92
2022-08-05T21:24:01.633Z,19.81
2022-08-05T21:26:58.455Z,19.76
2022-08-05T21:29:40.801Z,19.75
2022-08-05T21:32:29.715Z,19.78
2022-08-05T21:35:30.095Z,19.80
2022-08-05T21:38:06.505Z,19.78
2022-08-05T21:40:55.059Z,19.77
2022-08-05T21:43:42.818Z,19.72
2022-08-05T21:46:34.607Z,19.66
2022-08-05T21:49:56.893Z,19.60
2022-08-05T21:52:21.573Z,19.53
2022-08-05T21:55:06.284Z,19.51
2022-08-05T21:57:50.802Z,19.47
2022-08-05T22:00:40.106Z,19.42
2022-08-05T22:03:52.018Z,19.39
2022-08-05T22:06:22.866Z,19.33
2022-08-05T22:09:14.667Z,19.26
2022-08-05T22:11:55.826Z,19.21
2022-08-05T22:14:44.308Z,19.16
2022-08-05T22:17:32.113Z,19.14
2022-08-05T22:20:21.106Z,19.16
2022-08-05T22:24:02.270Z,19.18
2022-08-05T22:26:35.802Z,19.20
2022-08-05T22:29:26.905Z,19.18
2022-08-05T22:32:22.931Z,19.09
2022-08-05T22:35:03.266Z,19.03
2022-08-05T22:37:59.103Z,19.00
2022-08-05T22:40:41.049Z,18.98
2022-08-05T22:43:37.124Z,18.96
2022-08-05T22:46:21.046Z,18.97
2022-08-05T22:50:17.165Z,18.97
2022-08-05T22:52:07.180Z,18.92
2022-08-05T22:54:51.194Z,18.83
2022-08-05T22:57:38.353Z,18.81
2022-08-05T23:00:26.777Z,18.79
2022-08-05T23:03:14.613Z,18.78
2022-08-05T23:06:02.049Z,18.72
2022-08-05T23:08:50.429Z,18.69
2022-08-05T23:11:38.592Z,18.67
2022-08-05T23:14:31.765Z,18.60
2022-08-05T23:17:34.886Z,18.57
2022-08-05T23:20:17.617Z,18.56
2022-08-05T23:23:08.079Z,18.57
2022-08-05T23:25:55.241Z,18.56
2022-08-05T23:28:43.135Z,18.53
2022-08-05T23:31:30.595Z,18.51
2022-08-05T23:34:24.852Z,18.46
2022-08-05T23:37:08.097Z,18.43
2022-08-05T23:39:57.179Z,18.42
2022-08-05T23:42:47.266Z,18.39
2022-08-05T23:45:33.905Z,18.39
2022-08-05T23:48:23.033Z,18.37
2022-08-05T23:51:12.187Z,18.33
2022-08-05T23:54:01.455Z,18.32
2022-08-05T23:56:49.225Z,18.34
